Time;durP1;ratioP1;P1;durP2;ratioP2;P2;SDS_P1;SDS_P2;PMS_P1;PMS_P2;Temp;Humidity;BMP_temperature;BMP_pressure;BME280_temperature;BME280_humidity;BME280_pressure;Samples;Min_cycle;Max_cycle;Signal;HPM_P1;HPM_P2
2022/01/19 00:02:13;;;;;;;;;19.33;16.67;;;;;7.57;61.85;102635.56;5071149;28;45472;-73
2022/01/19 00:04:40;;;;;;;;;19.67;16.67;;;;;7.54;61.91;102630.38;5071506;28;45759;-74
2022/01/19 00:07:05;;;;;;;;;14.00;14.00;;;;;7.48;61.78;102618.16;5071414;27;45584;-73
2022/01/19 00:09:31;;;;;;;;;14.00;14.00;;;;;7.56;61.21;102631.97;5088865;27;45421;-74
2022/01/19 00:11:56;;;;;;;;;17.00;13.67;;;;;7.57;61.25;102628.25;5090015;27;45347;-73
2022/01/19 00:14:22;;;;;;;;;23.33;17.67;;;;;7.59;61.74;102626.22;5092106;27;46195;-72
2022/01/19 00:16:47;;;;;;;;;18.67;18.67;;;;;7.55;61.59;102607.53;5094613;27;45771;-73
2022/01/19 00:19:12;;;;;;;;;16.67;14.33;;;;;7.57;61.76;102614.59;5071284;28;45749;-72
2022/01/19 00:21:38;;;;;;;;;14.67;13.33;;;;;7.56;61.57;102595.59;5084357;27;45420;-71
2022/01/19 00:24:04;;;;;;;;;17.00;15.00;;;;;7.59;61.97;102587.16;5079336;27;45471;-73
2022/01/19 00:26:29;;;;;;;;;21.33;17.00;;;;;7.56;61.50;102571.91;5078347;27;45820;-74
2022/01/19 00:28:55;;;;;;;;;19.67;15.67;;;;;7.55;61.87;102559.25;5074244;28;46082;-73
2022/01/19 00:31:20;;;;;;;;;23.67;17.00;;;;;7.50;61.68;102556.09;5059182;27;45658;-72
2022/01/19 00:33:45;;;;;;;;;16.67;14.00;;;;;7.50;62.27;102549.75;5081406;27;45777;-74
2022/01/19 00:36:11;;;;;;;;;21.33;17.33;;;;;7.51;62.25;102541.44;5074818;28;45966;-71
2022/01/19 00:38:36;;;;;;;;;18.67;16.00;;;;;7.47;62.21;102533.66;5087122;27;45452;-74
2022/01/19 00:41:02;;;;;;;;;19.67;16.67;;;;;7.47;62.00;102542.75;5093082;27;45578;-71
2022/01/19 00:43:28;;;;;;;;;23.67;18.67;;;;;7.48;61.95;102557.25;5093204;27;45440;-73
2022/01/19 00:45:53;;;;;;;;;18.67;15.67;;;;;7.45;62.47;102552.91;5094664;27;45497;-71
2022/01/19 00:48:18;;;;;;;;;19.67;15.67;;;;;7.51;61.99;102568.72;5093999;27;45725;-72
2022/01/19 00:50:44;;;;;;;;;26.00;16.00;;;;;7.49;62.06;102558.97;5058846;28;45702;-71
2022/01/19 00:53:09;;;;;;;;;19.00;17.00;;;;;7.53;62.32;102564.00;5074173;28;45346;-71
2022/01/19 00:55:35;;;;;;;;;22.67;20.33;;;;;7.53;61.78;102561.28;5081486;27;45602;-73
2022/01/19 00:58:00;;;;;;;;;21.33;19.67;;;;;7.50;62.37;102572.47;5095101;27;45355;-72
2022/01/19 01:00:27;;;;;;;;;22.00;16.33;;;;;7.52;62.48;102575.06;5069134;28;45335;-71
2022/01/19 01:02:53;;;;;;;;;18.67;17.33;;;;;7.51;62.21;102563.25;5082970;27;45760;-71
2022/01/19 01:05:19;;;;;;;;;17.33;15.67;;;;;7.48;62.00;102558.09;5076323;27;45471;-73
2022/01/19 01:07:44;;;;;;;;;20.00;17.00;;;;;7.46;61.54;102554.66;5073305;27;46237;-71
2022/01/19 01:10:13;;;;;;;;;16.67;15.00;;;;;7.43;62.16;102550.34;5072058;28;45825;-70
2022/01/19 01:12:48;;;;;;;;;19.67;16.67;;;;;7.45;61.90;102543.88;5076372;27;45374;-71
2022/01/19 01:15:27;;;;;;;;;21.33;17.00;;;;;7.45;61.55;102542.00;5093208;27;45393;-71
2022/01/19 01:20:28;;;;;;;;;16.67;15.67;;;;;7.41;61.85;102525.06;5074537;27;45357;-71
2022/01/19 01:22:53;;;;;;;;;18.33;15.00;;;;;7.39;62.18;102520.75;5094099;27;45713;-71
2022/01/19 01:25:19;;;;;;;;;19.67;19.33;;;;;7.38;62.30;102513.56;5073132;27;45709;-73
2022/01/19 01:27:44;;;;;;;;;16.33;15.00;;;;;7.37;61.87;102511.84;5087644;27;45945;-70
2022/01/19 01:30:10;;;;;;;;;25.00;20.00;;;;;7.35;61.66;102517.47;5059323;27;45466;-73
2022/01/19 01:32:36;;;;;;;;;21.00;17.33;;;;;7.35;61.84;102525.66;5078546;27;45780;-71
2022/01/19 01:35:02;;;;;;;;;27.67;22.00;;;;;7.38;62.22;102532.66;5082068;27;46085;-72
2022/01/19 01:37:28;;;;;;;;;21.33;18.00;;;;;7.39;62.33;102531.66;5082281;27;46436;-72
2022/01/19 01:39:53;;;;;;;;;12.67;12.00;;;;;7.38;62.05;102524.47;5092275;27;45370;-72
2022/01/19 01:42:20;;;;;;;;;19.33;18.33;;;;;7.39;61.86;102528.94;5074179;27;45813;-71
2022/01/19 01:44:49;;;;;;;;;21.00;16.33;;;;;7.37;62.18;102525.50;5054953;28;46192;-71
2022/01/19 01:47:17;;;;;;;;;23.33;19.33;;;;;7.38;61.60;102529.94;5082930;27;46258;-76
2022/01/19 01:54:56;;;;;;;;;18.00;18.00;;;;;7.35;62.28;102522.03;5085718;27;45745;-71
2022/01/19 01:57:21;;;;;;;;;25.00;21.67;;;;;7.36;62.78;102510.97;5074342;27;45521;-76
2022/01/19 01:59:47;;;;;;;;;18.33;18.00;;;;;7.35;62.54;102503.81;5077931;27;45422;-76
2022/01/19 02:02:14;;;;;;;;;24.00;20.33;;;;;7.35;61.47;102498.34;5096899;27;45302;-77
2022/01/19 02:04:41;;;;;;;;;22.33;16.33;;;;;7.34;61.88;102493.03;5093731;27;45427;-77
2022/01/19 02:09:59;;;;;;;;;20.33;20.00;;;;;7.36;62.22;102499.19;5095023;27;45344;-71
2022/01/19 02:23:39;;;;;;;;;20.00;18.00;;;;;7.28;62.04;102458.13;5073564;27;45339;-73
2022/01/19 02:26:11;;;;;;;;;23.00;19.33;;;;;7.30;61.39;102456.13;5074071;27;45746;-70
2022/01/19 02:42:10;;;;;;;;;17.00;15.33;;;;;7.23;61.43;102421.22;5073383;28;45362;-76
2022/01/19 02:49:49;;;;;;;;;17.67;15.33;;;;;7.19;61.49;102403.41;5080629;27;46107;-76
2022/01/19 02:52:16;;;;;;;;;18.67;16.33;;;;;7.19;61.92;102392.50;5056282;28;45450;-75
2022/01/19 02:54:42;;;;;;;;;20.67;15.00;;;;;7.18;61.47;102403.56;5053822;28;45425;-70
2022/01/19 02:57:11;;;;;;;;;20.00;19.33;;;;;7.14;61.31;102393.94;5089775;27;45490;-69
2022/01/19 03:00:01;;;;;;;;;19.33;18.33;;;;;7.11;62.08;102386.94;5093772;27;45498;-75
2022/01/19 03:10:39;;;;;;;;;29.00;20.00;;;;;7.05;60.94;102393.81;5071427;27;45739;-70
2022/01/19 03:13:04;;;;;;;;;14.33;14.33;;;;;7.05;62.38;102390.22;5072733;27;45378;-75
2022/01/19 03:15:30;;;;;;;;;21.67;16.67;;;;;7.07;62.04;102377.31;5074574;27;45295;-76
2022/01/19 03:17:58;;;;;;;;;13.00;9.67;;;;;7.08;61.85;102387.22;5077326;27;45789;-70
2022/01/19 03:20:26;;;;;;;;;23.00;17.33;;;;;7.05;61.68;102369.25;5084461;27;45737;-71
2022/01/19 03:23:18;;;;;;;;;22.33;17.33;;;;;7.05;61.59;102371.09;5071459;28;45576;-76
2022/01/19 03:25:41;;;;;;;;;16.67;14.33;;;;;7.10;61.27;102363.38;5073696;28;45761;-74
2022/01/19 03:28:07;;;;;;;;;21.00;18.00;;;;;7.10;61.86;102360.63;5071803;27;46355;-76
2022/01/19 03:30:33;;;;;;;;;24.00;19.33;;;;;7.13;61.37;102362.22;5067275;28;45760;-76
2022/01/19 03:32:59;;;;;;;;;22.67;18.00;;;;;7.17;61.20;102369.09;5071321;28;45512;-71
2022/01/19 03:35:25;;;;;;;;;19.67;19.00;;;;;7.19;61.38;102373.41;5054762;28;45444;-72
2022/01/19 03:37:50;;;;;;;;;18.33;18.33;;;;;7.19;61.25;102367.94;5053559;28;45524;-76
2022/01/19 03:40:16;;;;;;;;;23.33;22.00;;;;;7.22;61.50;102372.25;5081657;27;45337;-75
2022/01/19 03:42:42;;;;;;;;;20.00;19.33;;;;;7.21;61.07;102374.09;5093431;27;45503;-75
2022/01/19 03:45:09;;;;;;;;;21.33;21.00;;;;;7.21;60.95;102363.19;5062142;28;45499;-70
2022/01/19 03:47:41;;;;;;;;;19.33;17.00;;;;;7.28;61.50;102373.53;5054563;28;45776;-75
2022/01/19 03:50:08;;;;;;;;;28.33;23.33;;;;;7.30;61.11;102363.31;5094937;27;45908;-75
2022/01/19 03:52:34;;;;;;;;;20.33;19.00;;;;;7.32;60.97;102354.00;5096817;27;45706;-73
2022/01/19 03:55:00;;;;;;;;;25.00;19.67;;;;;7.35;60.77;102356.44;5095631;27;45427;-72
2022/01/19 03:57:25;;;;;;;;;22.00;16.33;;;;;7.36;60.04;102346.34;5076466;27;46564;-76
2022/01/19 03:59:51;;;;;;;;;22.33;18.00;;;;;7.42;60.14;102348.50;5097456;27;46126;-76
2022/01/19 04:02:18;;;;;;;;;21.00;18.33;;;;;7.44;60.38;102349.22;5064620;28;45757;-74
2022/01/19 04:04:58;;;;;;;;;21.00;17.00;;;;;7.45;60.23;102345.47;5059432;28;45648;-77
2022/01/19 04:07:24;;;;;;;;;27.67;18.67;;;;;7.48;60.43;102341.59;5076719;27;45750;-75
2022/01/19 04:09:50;;;;;;;;;19.67;18.33;;;;;7.48;60.29;102339.69;5073143;27;47385;-75
2022/01/19 04:12:29;;;;;;;;;20.67;18.00;;;;;7.51;59.94;102339.41;5069497;28;45920;-75
2022/01/19 04:14:55;;;;;;;;;27.00;18.67;;;;;7.53;60.89;102347.44;5082368;27;45742;-71
2022/01/19 04:17:20;;;;;;;;;22.33;20.00;;;;;7.53;60.83;102337.41;5079486;27;45511;-70
2022/01/19 04:19:47;;;;;;;;;20.67;19.00;;;;;7.58;59.73;102340.53;5074695;28;45453;-70
2022/01/19 04:22:19;;;;;;;;;22.33;17.00;;;;;7.63;60.75;102339.22;5091715;27;45691;-70
2022/01/19 04:24:48;;;;;;;;;21.00;19.00;;;;;7.66;59.83;102344.38;5094102;27;45942;-75
2022/01/19 04:32:37;;;;;;;;;18.00;17.00;;;;;7.74;59.83;102344.50;5096506;27;45471;-74
2022/01/19 04:35:07;;;;;;;;;25.33;22.00;;;;;7.78;59.92;102345.91;5095789;27;45444;-71
2022/01/19 04:37:51;;;;;;;;;18.33;17.67;;;;;7.79;60.00;102339.44;5094811;27;45785;-74
2022/01/19 04:48:59;;;;;;;;;20.33;16.67;;;;;7.95;60.04;102336.91;5078787;27;45490;-74
2022/01/19 05:07:15;;;;;;;;;25.00;17.33;;;;;8.21;59.44;102341.63;5096315;27;45709;-74
2022/01/19 05:10:04;;;;;;;;;26.33;21.67;;;;;8.17;59.27;102334.75;5076672;27;45832;-76
2022/01/19 05:15:14;;;;;;;;;22.00;18.00;;;;;8.27;58.72;102335.56;5096745;27;45487;-81
2022/01/19 05:17:39;;;;;;;;;21.67;15.00;;;;;8.27;58.95;102338.28;5078299;27;45601;-74
2022/01/19 05:20:10;;;;;;;;;24.00;21.33;;;;;8.21;58.95;102325.25;5060175;28;46176;-79
2022/01/19 05:22:36;;;;;;;;;23.33;17.33;;;;;8.30;58.99;102343.44;5077745;27;45553;-75
2022/01/19 05:25:01;;;;;;;;;22.00;20.00;;;;;8.23;59.06;102331.44;5062996;27;47135;-75
2022/01/19 05:27:27;;;;;;;;;22.67;18.67;;;;;8.33;58.75;102336.81;5097547;27;45411;-78
2022/01/19 05:29:52;;;;;;;;;22.67;20.00;;;;;8.35;58.53;102336.66;5094922;27;45785;-75
2022/01/19 05:32:18;;;;;;;;;26.00;22.00;;;;;8.34;58.93;102334.94;5076035;28;46345;-73
2022/01/19 05:34:43;;;;;;;;;20.33;20.33;;;;;8.35;58.93;102328.47;5080064;27;45904;-75
2022/01/19 05:37:09;;;;;;;;;27.00;24.00;;;;;8.34;58.94;102324.00;5075188;28;45476;-74
2022/01/19 05:39:34;;;;;;;;;31.00;26.00;;;;;8.35;59.12;102323.00;5079631;27;45835;-79
2022/01/19 05:42:00;;;;;;;;;31.50;28.50;;;;;8.33;59.92;102314.09;5099295;27;46181;-79
2022/01/19 05:44:25;;;;;;;;;28.67;23.00;;;;;8.35;59.53;102314.78;5092350;27;45421;-77
2022/01/19 05:46:51;;;;;;;;;30.00;25.00;;;;;8.25;59.70;102303.94;5098776;27;45853;-78
2022/01/19 05:49:16;;;;;;;;;31.25;28.00;;;;;8.37;59.71;102318.22;5094102;27;45428;-77
2022/01/19 05:51:42;;;;;;;;;29.50;28.00;;;;;8.36;59.84;102322.00;5108205;27;45500;-79
2022/01/19 05:54:07;;;;;;;;;31.33;28.00;;;;;8.40;60.19;102328.88;5078552;27;45547;-79
2022/01/19 05:56:33;;;;;;;;;39.67;32.33;;;;;8.40;59.46;102317.94;5064334;27;45575;-74
2022/01/19 05:58:59;;;;;;;;;32.75;31.25;;;;;8.33;59.84;102317.69;5101238;27;45956;-79
2022/01/19 06:01:24;;;;;;;;;37.00;30.25;;;;;8.37;60.17;102318.22;5101109;27;45413;-76
2022/01/19 06:03:51;;;;;;;;;34.25;27.00;;;;;8.39;60.06;102322.53;5105227;27;45940;-79
2022/01/19 06:06:17;;;;;;;;;34.00;28.75;;;;;8.31;59.85;102309.63;5109963;27;45565;-75
2022/01/19 06:08:44;;;;;;;;;38.25;31.50;;;;;8.36;60.81;102317.38;5076107;27;46043;-79
2022/01/19 06:11:11;;;;;;;;;34.25;30.00;;;;;8.40;60.04;102328.88;5090245;27;45913;-77
2022/01/19 06:13:37;;;;;;;;;36.50;32.25;;;;;8.38;60.53;102322.69;5106658;27;45673;-78
2022/01/19 06:16:03;;;;;;;;;39.50;32.00;;;;;8.39;60.54;102318.94;5094258;27;45423;-75
2022/01/19 06:18:29;;;;;;;;;44.50;32.00;;;;;8.39;60.80;102318.94;5075871;27;46173;-78
2022/01/19 06:20:55;;;;;;;;;31.75;27.50;;;;;8.36;60.53;102311.06;5090763;27;45493;-76
2022/01/19 06:23:21;;;;;;;;;37.75;32.75;;;;;8.40;60.90;102324.25;5070491;27;45492;-77
2022/01/19 06:25:47;;;;;;;;;36.75;29.00;;;;;8.39;61.09;102313.47;5086915;27;45825;-79
2022/01/19 06:28:13;;;;;;;;;35.00;31.25;;;;;8.45;60.23;102318.34;5072358;27;45932;-76
2022/01/19 06:30:38;;;;;;;;;39.00;30.50;;;;;8.44;60.32;102309.28;5082804;27;45670;-78
2022/01/19 06:33:04;;;;;;;;;34.50;31.50;;;;;8.42;59.89;102299.50;5088948;27;45471;-74
2022/01/19 06:35:30;;;;;;;;;38.00;32.00;;;;;8.44;60.55;102308.41;5083094;27;45546;-74
2022/01/19 06:37:56;;;;;;;;;33.67;28.33;;;;;8.41;61.26;102314.16;5081681;27;46078;-74
2022/01/19 06:40:25;;;;;;;;;36.75;31.00;;;;;8.43;61.46;102317.63;5082025;27;46108;-75
2022/01/19 06:42:53;;;;;;;;;40.75;33.00;;;;;8.41;60.86;102308.69;5087331;27;45837;-73
2022/01/19 06:45:19;;;;;;;;;34.00;32.75;;;;;8.42;61.40;102314.00;5081162;27;45627;-71
2022/01/19 06:47:44;;;;;;;;;37.25;31.75;;;;;8.39;60.64;102300.66;5081786;27;46091;-73
2022/01/19 06:50:11;;;;;;;;;41.00;32.00;;;;;8.37;61.18;102296.34;5066943;28;45474;-73
2022/01/19 06:52:38;;;;;;;;;37.50;32.00;;;;;8.37;61.47;102307.28;5085168;27;45570;-73
2022/01/19 06:55:05;;;;;;;;;36.00;31.75;;;;;8.38;61.53;102311.75;5089075;27;46100;-75
2022/01/19 06:57:31;;;;;;;;;37.00;31.50;;;;;8.38;61.59;102309.00;5082937;27;45848;-72
2022/01/19 06:59:56;;;;;;;;;39.25;32.25;;;;;8.38;61.69;102304.41;5069177;27;46668;-73
2022/01/19 07:02:22;;;;;;;;;33.75;31.25;;;;;8.36;61.88;102311.91;5081433;27;45562;-70
2022/01/19 07:04:49;;;;;;;;;36.75;32.00;;;;;8.38;62.00;102309.00;5082842;27;45466;-74
2022/01/19 07:07:17;;;;;;;;;32.00;28.75;;;;;8.36;61.76;102308.31;5076886;27;45391;-73
2022/01/19 07:09:42;;;;;;;;;36.50;31.75;;;;;8.30;61.02;102310.66;5097696;27;45757;-75
2022/01/19 07:12:08;;;;;;;;;36.75;30.50;;;;;8.35;61.17;102310.16;5058560;27;46364;-72
2022/01/19 07:14:34;;;;;;;;;42.50;31.50;;;;;8.35;61.42;102296.50;5087904;27;45571;-73
2022/01/19 07:16:59;;;;;;;;;34.75;31.50;;;;;8.35;61.40;102293.78;5100262;27;45489;-70
2022/01/19 07:19:25;;;;;;;;;43.25;30.50;;;;;8.36;60.95;102306.44;5109768;27;45867;-73
2022/01/19 07:21:50;;;;;;;;;37.50;30.25;;;;;8.34;61.35;102305.75;5099551;27;45749;-72
2022/01/19 07:24:16;;;;;;;;;38.67;33.00;;;;;8.29;61.50;102288.94;5073416;27;45490;-72
2022/01/19 07:26:42;;;;;;;;;34.75;30.75;;;;;8.39;60.70;102311.59;5107369;27;45546;-75
2022/01/19 07:29:07;;;;;;;;;31.00;29.25;;;;;8.37;60.93;102313.63;5072935;27;46980;-74
2022/01/19 07:31:33;;;;;;;;;39.75;31.50;;;;;8.39;62.11;102322.53;5093326;27;45831;-72
2022/01/19 07:33:59;;;;;;;;;35.75;32.25;;;;;8.37;61.53;102320.94;5094462;27;45833;-72
2022/01/19 07:36:24;;;;;;;;;34.25;29.00;;;;;8.39;61.82;102321.69;5092989;27;45602;-74
2022/01/19 07:38:49;;;;;;;;;37.25;32.25;;;;;8.38;61.80;102325.41;5075770;27;47129;-74
2022/01/19 07:41:15;;;;;;;;;35.00;32.00;;;;;8.38;61.59;102320.78;5092365;27;45760;-73
2022/01/19 07:43:40;;;;;;;;;32.25;30.50;;;;;8.39;61.16;102316.22;5061000;27;45506;-71
2022/01/19 07:46:06;;;;;;;;;33.25;28.50;;;;;8.37;61.89;102319.09;5094292;27;45608;-72
2022/01/19 07:48:31;;;;;;;;;41.75;32.25;;;;;8.38;61.93;102322.69;5109042;27;46245;-72
2022/01/19 07:50:57;;;;;;;;;37.00;30.00;;;;;8.39;61.58;102322.53;5103783;27;45752;-72
2022/01/19 07:53:23;;;;;;;;;37.25;32.00;;;;;8.36;62.32;102314.63;5075981;27;45656;-73
2022/01/19 07:55:49;;;;;;;;;33.00;30.75;;;;;8.36;62.15;102327.44;5068518;27;46618;-70
2022/01/19 07:58:16;;;;;;;;;30.50;28.25;;;;;8.37;62.20;102323.69;5093199;27;45452;-72
2022/01/19 08:00:42;;;;;;;;;35.00;30.00;;;;;8.37;62.65;102321.84;5097968;27;45405;-73
2022/01/19 08:03:08;;;;;;;;;30.50;28.25;;;;;8.39;62.29;102313.47;5087838;27;45524;-72
2022/01/19 08:05:34;;;;;;;;;30.75;25.50;;;;;8.39;62.34;102305.28;5108197;27;45887;-73
2022/01/19 08:08:01;;;;;;;;;35.75;29.50;;;;;8.42;62.16;102305.81;5107906;27;46914;-74
2022/01/19 08:10:29;;;;;;;;;34.00;28.67;;;;;8.44;61.88;102316.63;5091444;27;46962;-73
2022/01/19 08:12:55;;;;;;;;;34.25;30.50;;;;;8.43;61.96;102313.00;5065807;27;45569;-72
2022/01/19 08:15:20;;;;;;;;;33.50;28.25;;;;;8.44;61.71;102319.34;5067892;27;45487;-72
2022/01/19 08:17:46;;;;;;;;;32.00;27.00;;;;;8.42;61.87;102316.75;5088672;27;45919;-71
2022/01/19 08:20:12;;;;;;;;;38.25;31.00;;;;;8.44;61.65;102325.69;5072801;27;45750;-73
2022/01/19 08:22:38;;;;;;;;;32.50;30.25;;;;;8.46;62.75;102320.06;5081181;27;45904;-72
2022/01/19 08:25:04;;;;;;;;;35.75;31.50;;;;;8.47;62.49;102322.66;5072336;28;45670;-75
2022/01/19 08:27:29;;;;;;;;;39.50;28.75;;;;;8.48;62.26;102328.97;5074688;28;47830;-73
2022/01/19 08:29:55;;;;;;;;;34.67;27.67;;;;;8.53;62.47;102334.81;5078649;27;45461;-71
2022/01/19 08:32:20;;;;;;;;;47.50;32.75;;;;;8.56;62.04;102331.81;5088489;27;45611;-74
2022/01/19 08:34:46;;;;;;;;;33.25;29.00;;;;;8.58;62.26;102342.59;5036562;27;45711;-73
2022/01/19 08:37:15;;;;;;;;;33.50;28.75;;;;;8.60;62.05;102346.00;5099227;27;46354;-75
2022/01/19 08:39:44;;;;;;;;;29.67;27.67;;;;;8.60;61.98;102341.38;5095038;27;45892;-73
2022/01/19 08:42:10;;;;;;;;;33.75;26.50;;;;;8.64;61.65;102348.28;5091978;27;45402;-73
2022/01/19 08:44:36;;;;;;;;;34.75;29.50;;;;;8.61;62.73;102345.84;5074040;28;45510;-74
2022/01/19 08:47:02;;;;;;;;;43.75;31.75;;;;;8.69;61.59;102355.16;5091561;27;45772;-73
2022/01/19 08:49:27;;;;;;;;;42.75;30.00;;;;;8.71;62.38;102353.94;5075386;27;45604;-75
2022/01/19 08:51:53;;;;;;;;;35.00;32.00;;;;;8.72;62.00;102357.56;5095447;27;45341;-73
2022/01/19 08:54:18;;;;;;;;;32.50;31.00;;;;;8.72;61.70;102358.41;5075731;27;45635;-76
2022/01/19 08:56:44;;;;;;;;;38.00;32.33;;;;;8.74;61.63;102347.31;5074853;27;46109;-73
2022/01/19 08:59:09;;;;;;;;;38.00;29.75;;;;;8.77;62.08;102347.00;5093849;27;45788;-76
2022/01/19 09:01:35;;;;;;;;;36.75;29.25;;;;;8.79;62.00;102345.84;5079568;27;45457;-76
2022/01/19 09:04:00;;;;;;;;;35.00;31.50;;;;;8.83;61.63;102349.09;5060148;28;45674;-75
2022/01/19 09:06:26;;;;;;;;;32.75;29.25;;;;;8.87;61.35;102361.47;5079330;27;45973;-74
2022/01/19 09:08:51;;;;;;;;;48.25;35.50;;;;;8.90;61.94;102360.28;5080729;27;45624;-75
2022/01/19 09:11:17;;;;;;;;;38.00;31.00;;;;;8.92;61.48;102360.97;5081195;27;45847;-75
2022/01/19 09:13:44;;;;;;;;;39.50;31.00;;;;;8.92;61.13;102367.34;5076046;27;45604;-75
2022/01/19 09:16:09;;;;;;;;;35.00;29.00;;;;;8.96;61.07;102367.88;5081819;27;45425;-75
2022/01/19 09:18:35;;;;;;;;;37.50;31.50;;;;;8.96;61.24;102368.72;5094796;27;45818;-76
2022/01/19 09:21:00;;;;;;;;;41.00;32.25;;;;;8.98;62.02;102374.91;5087343;27;45764;-74
2022/01/19 09:23:26;;;;;;;;;42.50;33.75;;;;;8.93;61.31;102359.97;5074394;28;45662;-75
2022/01/19 09:25:51;;;;;;;;;33.25;29.25;;;;;8.99;61.12;102382.06;5063556;28;47299;-74
2022/01/19 09:28:17;;;;;;;;;31.25;29.00;;;;;9.01;60.82;102382.78;5073951;28;45791;-75
2022/01/19 09:30:45;;;;;;;;;31.75;25.75;;;;;9.04;61.30;102387.06;5080662;27;45366;-75
2022/01/19 09:33:17;;;;;;;;;33.67;26.67;;;;;9.07;61.12;102385.91;5093127;27;45627;-74
2022/01/19 09:36:05;;;;;;;;;30.67;27.00;;;;;9.08;60.92;102385.75;5055290;28;47794;-74
2022/01/19 09:38:37;;;;;;;;;29.67;22.33;;;;;9.07;61.39;102380.44;5068632;27;45455;-72
2022/01/19 09:41:06;;;;;;;;;37.00;30.33;;;;;9.15;61.48;102377.78;5089817;27;45463;-75
2022/01/19 09:43:31;;;;;;;;;33.67;27.00;;;;;9.17;61.89;102373.84;5090160;27;45544;-75
2022/01/19 09:45:59;;;;;;;;;39.67;34.00;;;;;9.23;60.97;102380.56;5101177;27;45969;-73
2022/01/19 09:48:26;;;;;;;;;32.50;30.25;;;;;9.23;60.86;102369.59;5067381;28;45782;-75
2022/01/19 09:50:54;;;;;;;;;31.00;26.75;;;;;9.32;60.71;102376.00;5073816;27;45402;-75
2022/01/19 09:53:20;;;;;;;;;37.00;31.75;;;;;9.33;60.46;102373.09;5072944;27;45782;-73
2022/01/19 09:55:47;;;;;;;;;40.00;32.75;;;;;9.31;61.11;102368.81;5096179;27;46369;-74
2022/01/19 09:58:13;;;;;;;;;37.00;33.50;;;;;9.41;60.71;102372.31;5114737;27;45436;-74
2022/01/19 10:00:40;;;;;;;;;42.00;33.00;;;;;9.40;59.99;102361.50;5114483;27;45804;-74
2022/01/19 10:03:18;;;;;;;;;38.25;33.75;;;;;9.50;60.91;102359.53;5113291;27;45681;-74
2022/01/19 10:06:07;;;;;;;;;40.00;32.00;;;;;9.51;60.56;102358.50;5088219;27;46126;-75
2022/01/19 10:08:53;;;;;;;;;36.67;30.00;;;;;9.63;60.33;102359.09;5093751;27;45740;-74
2022/01/19 10:17:01;;;;;;;;;35.33;32.00;;;;;9.83;59.95;102359.69;5062049;27;45707;-75
2022/01/19 10:19:50;;;;;;;;;39.00;35.00;;;;;9.86;59.42;102364.84;5047967;28;45585;-73
2022/01/19 10:22:18;;;;;;;;;34.25;29.25;;;;;9.87;58.92;102355.63;5065506;28;45451;-71
2022/01/19 10:25:04;;;;;;;;;38.00;33.75;;;;;9.93;59.36;102365.06;5062298;27;46614;-72
2022/01/19 10:27:38;;;;;;;;;39.33;31.33;;;;;9.92;59.39;102369.66;5050110;27;46298;-73
2022/01/19 10:30:03;;;;;;;;;36.00;31.67;;;;;9.95;59.19;102360.25;5061394;28;45987;-71
2022/01/19 10:32:38;;;;;;;;;36.00;31.25;;;;;9.92;58.70;102357.84;5044865;28;45821;-73
2022/01/19 10:35:13;;;;;;;;;41.50;32.25;;;;;10.01;58.63;102365.94;5066905;27;45459;-77
2022/01/19 10:37:38;;;;;;;;;39.33;31.33;;;;;10.03;58.95;102360.28;5063702;28;45955;-72
2022/01/19 10:40:05;;;;;;;;;31.75;29.50;;;;;10.05;59.06;102371.97;5062580;28;45568;-74
2022/01/19 10:42:32;;;;;;;;;41.50;33.00;;;;;10.03;58.65;102372.13;5065094;28;45528;-74
2022/01/19 10:45:09;;;;;;;;;39.25;33.50;;;;;10.04;58.21;102365.63;5049665;28;46163;-75
2022/01/19 10:47:41;;;;;;;;;36.75;31.75;;;;;10.06;58.30;102366.31;5065195;28;46476;-75
2022/01/19 10:50:12;;;;;;;;;37.25;34.50;;;;;9.94;58.26;102342.09;5064958;27;45599;-74
2022/01/19 10:52:41;;;;;;;;;42.75;35.50;;;;;9.92;58.50;102345.00;5048274;28;45836;-76
2022/01/19 10:55:09;;;;;;;;;43.25;33.75;;;;;9.99;58.71;102348.81;5043057;28;47041;-75
2022/01/19 10:57:37;;;;;;;;;48.50;34.75;;;;;10.03;58.87;102350.19;5063901;27;46326;-73
2022/01/19 11:00:09;;;;;;;;;54.50;39.75;;;;;10.03;58.38;102341.97;5062192;27;45614;-75
2022/01/19 11:02:37;;;;;;;;;46.00;32.50;;;;;10.03;58.85;102343.84;5064500;28;45532;-76
2022/01/19 11:05:03;;;;;;;;;47.75;36.50;;;;;10.03;58.76;102333.75;5052364;28;45662;-75
2022/01/19 11:07:29;;;;;;;;;43.50;36.00;;;;;10.02;58.54;102334.75;5060178;28;46500;-75
2022/01/19 11:10:01;;;;;;;;;44.50;36.00;;;;;10.04;58.98;102332.72;5071794;28;45801;-75
2022/01/19 11:12:30;;;;;;;;;52.25;40.25;;;;;10.04;59.06;102331.84;5052079;27;45869;-74
2022/01/19 11:14:56;;;;;;;;;45.75;39.25;;;;;10.00;59.26;102328.59;5076615;27;45907;-75
2022/01/19 11:17:21;;;;;;;;;50.25;39.00;;;;;10.00;58.59;102328.59;5102312;27;45875;-74
2022/01/19 11:19:49;;;;;;;;;56.00;42.50;;;;;10.03;58.89;102319.16;5087817;27;45448;-76
2022/01/19 11:22:36;;;;;;;;;53.75;41.75;;;;;10.03;58.85;102319.16;5090155;27;45941;-77
2022/01/19 11:25:10;;;;;;;;;53.75;40.75;;;;;9.98;58.71;102303.22;5073378;27;46094;-81
2022/01/19 11:27:45;;;;;;;;;50.25;42.00;;;;;10.03;59.50;102317.31;5074136;27;47363;-80
2022/01/19 11:30:34;;;;;;;;;51.50;40.25;;;;;9.98;58.63;102307.84;5095774;27;45755;-77
2022/01/19 11:33:26;;;;;;;;;56.50;42.75;;;;;10.07;59.01;102312.34;5090078;27;45852;-77
2022/01/19 11:36:05;;;;;;;;;54.50;42.25;;;;;10.06;58.67;102316.97;5069994;27;46201;-77
2022/01/19 11:38:42;;;;;;;;;55.75;41.50;;;;;10.04;59.28;102312.66;5088636;27;45699;-76
2022/01/19 11:41:08;;;;;;;;;56.00;43.00;;;;;10.07;59.13;102306.84;5061485;27;45406;-76
2022/01/19 11:43:35;;;;;;;;;53.00;42.00;;;;;10.10;59.43;102308.41;5093017;27;45465;-76
2022/01/19 11:46:03;;;;;;;;;51.25;40.25;;;;;10.11;59.28;102297.28;5097077;27;45579;-76
2022/01/19 11:48:37;;;;;;;;;51.75;40.50;;;;;10.12;58.52;102290.78;5084238;27;47109;-75
2022/01/19 11:51:28;;;;;;;;;46.00;39.00;;;;;10.10;58.81;102279.09;5084939;27;45573;-80
2022/01/19 11:54:12;;;;;;;;;49.50;39.25;;;;;10.13;58.99;102284.25;5086410;27;45753;-75
2022/01/19 11:56:59;;;;;;;;;50.00;38.50;;;;;10.25;59.38;102280.19;5076869;27;47685;-74
2022/01/19 11:59:30;;;;;;;;;47.00;37.75;;;;;10.23;58.63;102278.63;5076770;27;46160;-74
2022/01/19 12:02:21;;;;;;;;;46.00;36.75;;;;;10.25;58.33;102293.88;5074584;27;45448;-74
2022/01/19 12:04:50;;;;;;;;;40.50;35.25;;;;;10.32;58.57;102296.81;5081983;27;45877;-76
2022/01/19 12:07:36;;;;;;;;;52.50;37.00;;;;;10.31;58.40;102286.00;5077185;27;45675;-74
2022/01/19 12:10:04;;;;;;;;;48.25;37.00;;;;;10.37;57.96;102283.50;5087172;27;46171;-74
2022/01/19 12:12:34;;;;;;;;;44.00;37.00;;;;;10.42;57.66;102288.47;5073701;27;45868;-74
2022/01/19 12:15:05;;;;;;;;;45.75;37.00;;;;;10.44;58.30;102272.69;5084805;27;45834;-76
2022/01/19 12:17:57;;;;;;;;;51.00;39.75;;;;;10.49;57.59;102272.16;5094436;27;45904;-75
2022/01/19 12:20:51;;;;;;;;;49.75;37.50;;;;;10.58;57.74;102271.13;5079137;27;45985;-74
2022/01/19 12:23:34;;;;;;;;;47.50;36.25;;;;;10.51;57.47;102250.91;5062650;27;45506;-76
2022/01/19 12:26:00;;;;;;;;;52.50;39.75;;;;;10.61;58.10;102262.56;5088010;27;45642;-76
2022/01/19 12:28:48;;;;;;;;;52.50;41.50;;;;;10.67;58.51;102261.88;5086700;27;45725;-74
2022/01/19 12:31:26;;;;;;;;;41.75;35.50;;;;;10.70;57.71;102267.03;5082566;27;45896;-75
2022/01/19 12:34:14;;;;;;;;;46.00;35.25;;;;;10.69;57.84;102256.22;5067959;27;45914;-74
2022/01/19 12:36:51;;;;;;;;;38.33;31.00;;;;;10.63;57.59;102243.19;5094056;27;45575;-76
2022/01/19 12:39:25;;;;;;;;;41.33;31.33;;;;;10.51;57.65;102253.63;5090091;27;45932;-76
2022/01/19 12:42:01;;;;;;;;;37.67;28.67;;;;;10.50;57.87;102246.47;5090532;27;45467;-77
2022/01/19 12:44:46;;;;;;;;;28.33;26.00;;;;;10.48;57.72;102252.13;5089014;27;45587;-74
2022/01/19 12:47:27;;;;;;;;;35.67;29.33;;;;;10.47;57.96;102246.81;5100286;27;45837;-76
2022/01/19 12:49:54;;;;;;;;;35.33;30.00;;;;;10.42;58.28;102234.47;5088382;27;45497;-76
2022/01/19 12:52:26;;;;;;;;;34.67;29.67;;;;;10.39;57.93;102223.81;5091497;27;46545;-75